sensor_id;sensor_type;location;lat;lon;timestamp;P1;durP1;ratioP1;P2;durP2;ratioP2
23573;SDS011;11965;53.640;10.050;2023-05-21T00:01:06;3.38;;;3.33;;
23573;SDS011;11965;53.640;10.050;2023-05-21T00:03:35;3.28;;;3.23;;
23573;SDS011;11965;53.640;10.050;2023-05-21T00:06:06;3.00;;;2.97;;
23573;SDS011;11965;53.640;10.050;2023-05-21T00:08:32;3.33;;;3.30;;
23573;SDS011;11965;53.640;10.050;2023-05-21T00:10:59;3.12;;;3.09;;
23573;SDS011;11965;53.640;10.050;2023-05-21T00:13:26;3.16;;;3.12;;
23573;SDS011;11965;53.640;10.050;2023-05-21T00:15:54;3.20;;;3.15;;
23573;SDS011;11965;53.640;10.050;2023-05-21T00:18:21;3.30;;;3.27;;
23573;SDS011;11965;53.640;10.050;2023-05-21T00:20:51;3.34;;;3.29;;
23573;SDS011;11965;53.640;10.050;2023-05-21T00:23:18;3.22;;;3.17;;
23573;SDS011;11965;53.640;10.050;2023-05-21T00:25:46;3.22;;;3.19;;
23573;SDS011;11965;53.640;10.050;2023-05-21T00:28:14;3.07;;;3.07;;
23573;SDS011;11965;53.640;10.050;2023-05-21T00:30:42;2.98;;;2.98;;
23573;SDS011;11965;53.640;10.050;2023-05-21T00:33:09;3.24;;;3.21;;
23573;SDS011;11965;53.640;10.050;2023-05-21T00:35:38;3.10;;;3.06;;
23573;SDS011;11965;53.640;10.050;2023-05-21T00:38:07;3.39;;;3.36;;
23573;SDS011;11965;53.640;10.050;2023-05-21T00:40:34;3.02;;;2.99;;
23573;SDS011;11965;53.640;10.050;2023-05-21T00:43:01;3.41;;;3.39;;
23573;SDS011;11965;53.640;10.050;2023-05-21T00:45:28;3.31;;;3.27;;
23573;SDS011;11965;53.640;10.050;2023-05-21T00:47:55;3.04;;;3.00;;
23573;SDS011;11965;53.640;10.050;2023-05-21T00:50:23;3.09;;;3.06;;
23573;SDS011;11965;53.640;10.050;2023-05-21T00:52:52;3.19;;;3.16;;
23573;SDS011;11965;53.640;10.050;2023-05-21T00:55:20;3.24;;;3.20;;
23573;SDS011;11965;53.640;10.050;2023-05-21T00:57:51;3.18;;;3.13;;
23573;SDS011;11965;53.640;10.050;2023-05-21T01:00:21;3.05;;;3.03;;
23573;SDS011;11965;53.640;10.050;2023-05-21T01:02:50;3.10;;;3.09;;
23573;SDS011;11965;53.640;10.050;2023-05-21T01:05:17;3.31;;;3.26;;
23573;SDS011;11965;53.640;10.050;2023-05-21T01:07:46;3.12;;;3.10;;
23573;SDS011;11965;53.640;10.050;2023-05-21T01:10:13;2.73;;;2.73;;
23573;SDS011;11965;53.640;10.050;2023-05-21T01:12:43;3.05;;;3.04;;
23573;SDS011;11965;53.640;10.050;2023-05-21T01:15:10;3.05;;;3.04;;
23573;SDS011;11965;53.640;10.050;2023-05-21T01:17:38;3.27;;;3.26;;
23573;SDS011;11965;53.640;10.050;2023-05-21T01:20:06;3.09;;;3.08;;
23573;SDS011;11965;53.640;10.050;2023-05-21T01:22:35;2.96;;;2.95;;
23573;SDS011;11965;53.640;10.050;2023-05-21T01:25:09;2.97;;;2.97;;
23573;SDS011;11965;53.640;10.050;2023-05-21T01:27:36;3.06;;;3.05;;
23573;SDS011;11965;53.640;10.050;2023-05-21T01:30:03;3.15;;;3.15;;
23573;SDS011;11965;53.640;10.050;2023-05-21T01:32:33;3.09;;;3.06;;
23573;SDS011;11965;53.640;10.050;2023-05-21T01:35:08;3.16;;;3.15;;
23573;SDS011;11965;53.640;10.050;2023-05-21T01:37:42;3.06;;;3.06;;
23573;SDS011;11965;53.640;10.050;2023-05-21T01:40:17;3.34;;;3.34;;
23573;SDS011;11965;53.640;10.050;2023-05-21T01:42:50;3.28;;;3.26;;
23573;SDS011;11965;53.640;10.050;2023-05-21T01:45:19;3.08;;;3.06;;
23573;SDS011;11965;53.640;10.050;2023-05-21T01:47:50;3.40;;;3.37;;
23573;SDS011;11965;53.640;10.050;2023-05-21T01:50:20;3.21;;;3.20;;
23573;SDS011;11965;53.640;10.050;2023-05-21T01:52:50;3.32;;;3.30;;
23573;SDS011;11965;53.640;10.050;2023-05-21T01:55:19;3.18;;;3.16;;
23573;SDS011;11965;53.640;10.050;2023-05-21T01:57:49;3.27;;;3.23;;
23573;SDS011;11965;53.640;10.050;2023-05-21T02:00:17;3.37;;;3.33;;
23573;SDS011;11965;53.640;10.050;2023-05-21T02:02:45;3.39;;;3.36;;
23573;SDS011;11965;53.640;10.050;2023-05-21T02:05:13;3.40;;;3.34;;
23573;SDS011;11965;53.640;10.050;2023-05-21T02:07:40;3.62;;;3.57;;
23573;SDS011;11965;53.640;10.050;2023-05-21T02:10:08;3.39;;;3.35;;
23573;SDS011;11965;53.640;10.050;2023-05-21T02:12:37;3.47;;;3.43;;
23573;SDS011;11965;53.640;10.050;2023-05-21T02:15:05;3.34;;;3.31;;
23573;SDS011;11965;53.640;10.050;2023-05-21T02:17:32;3.52;;;3.50;;
23573;SDS011;11965;53.640;10.050;2023-05-21T02:20:00;3.44;;;3.43;;
23573;SDS011;11965;53.640;10.050;2023-05-21T02:22:36;3.46;;;3.45;;
23573;SDS011;11965;53.640;10.050;2023-05-21T02:25:04;3.67;;;3.65;;
23573;SDS011;11965;53.640;10.050;2023-05-21T02:27:33;3.66;;;3.64;;
23573;SDS011;11965;53.640;10.050;2023-05-21T02:30:03;3.68;;;3.67;;
23573;SDS011;11965;53.640;10.050;2023-05-21T02:32:31;3.72;;;3.72;;
23573;SDS011;11965;53.640;10.050;2023-05-21T02:34:59;3.77;;;3.77;;
23573;SDS011;11965;53.640;10.050;2023-05-21T02:37:28;3.87;;;3.86;;
23573;SDS011;11965;53.640;10.050;2023-05-21T02:39:59;3.97;;;3.93;;
23573;SDS011;11965;53.640;10.050;2023-05-21T02:42:28;3.86;;;3.82;;
23573;SDS011;11965;53.640;10.050;2023-05-21T02:44:55;4.02;;;4.01;;
23573;SDS011;11965;53.640;10.050;2023-05-21T02:47:24;3.93;;;3.93;;
23573;SDS011;11965;53.640;10.050;2023-05-21T02:49:52;4.05;;;4.05;;
23573;SDS011;11965;53.640;10.050;2023-05-21T02:52:20;4.20;;;4.18;;
23573;SDS011;11965;53.640;10.050;2023-05-21T02:54:48;3.97;;;3.97;;
23573;SDS011;11965;53.640;10.050;2023-05-21T02:57:16;4.07;;;4.07;;
23573;SDS011;11965;53.640;10.050;2023-05-21T02:59:43;4.24;;;4.24;;
23573;SDS011;11965;53.640;10.050;2023-05-21T03:02:11;4.31;;;4.31;;
23573;SDS011;11965;53.640;10.050;2023-05-21T03:04:39;4.68;;;4.68;;
23573;SDS011;11965;53.640;10.050;2023-05-21T03:07:10;4.51;;;4.49;;
23573;SDS011;11965;53.640;10.050;2023-05-21T03:09:43;4.06;;;4.05;;
23573;SDS011;11965;53.640;10.050;2023-05-21T03:12:10;4.44;;;4.43;;
23573;SDS011;11965;53.640;10.050;2023-05-21T03:14:37;4.23;;;4.22;;
23573;SDS011;11965;53.640;10.050;2023-05-21T03:17:06;4.30;;;4.30;;
23573;SDS011;11965;53.640;10.050;2023-05-21T03:19:39;4.53;;;4.53;;
23573;SDS011;11965;53.640;10.050;2023-05-21T03:22:07;4.99;;;4.99;;
23573;SDS011;11965;53.640;10.050;2023-05-21T03:24:36;4.93;;;4.92;;
23573;SDS011;11965;53.640;10.050;2023-05-21T03:27:05;4.47;;;4.45;;
23573;SDS011;11965;53.640;10.050;2023-05-21T03:29:33;4.29;;;4.29;;
23573;SDS011;11965;53.640;10.050;2023-05-21T03:32:02;4.70;;;4.70;;
23573;SDS011;11965;53.640;10.050;2023-05-21T03:34:31;4.60;;;4.58;;
23573;SDS011;11965;53.640;10.050;2023-05-21T03:37:04;4.38;;;4.36;;
23573;SDS011;11965;53.640;10.050;2023-05-21T03:39:32;4.64;;;4.63;;
23573;SDS011;11965;53.640;10.050;2023-05-21T03:42:00;4.39;;;4.38;;
23573;SDS011;11965;53.640;10.050;2023-05-21T03:44:40;5.15;;;5.13;;
23573;SDS011;11965;53.640;10.050;2023-05-21T03:47:21;4.99;;;4.94;;
23573;SDS011;11965;53.640;10.050;2023-05-21T03:49:49;4.90;;;4.88;;
23573;SDS011;11965;53.640;10.050;2023-05-21T03:52:17;5.03;;;5.03;;
23573;SDS011;11965;53.640;10.050;2023-05-21T03:54:44;4.84;;;4.83;;
23573;SDS011;11965;53.640;10.050;2023-05-21T03:57:11;4.98;;;4.97;;
23573;SDS011;11965;53.640;10.050;2023-05-21T03:59:39;5.17;;;5.17;;
23573;SDS011;11965;53.640;10.050;2023-05-21T04:02:06;4.91;;;4.91;;
23573;SDS011;11965;53.640;10.050;2023-05-21T04:04:33;5.23;;;5.23;;
23573;SDS011;11965;53.640;10.050;2023-05-21T04:07:01;5.15;;;5.15;;
23573;SDS011;11965;53.640;10.050;2023-05-21T04:09:31;5.32;;;5.32;;
23573;SDS011;11965;53.640;10.050;2023-05-21T04:11:58;5.65;;;5.65;;
23573;SDS011;11965;53.640;10.050;2023-05-21T04:14:25;5.39;;;5.38;;
23573;SDS011;11965;53.640;10.050;2023-05-21T04:16:52;5.56;;;5.51;;
23573;SDS011;11965;53.640;10.050;2023-05-21T04:19:20;5.63;;;5.58;;
23573;SDS011;11965;53.640;10.050;2023-05-21T04:21:48;5.58;;;5.50;;
23573;SDS011;11965;53.640;10.050;2023-05-21T04:24:15;5.77;;;5.72;;
23573;SDS011;11965;53.640;10.050;2023-05-21T04:26:50;5.36;;;5.35;;
23573;SDS011;11965;53.640;10.050;2023-05-21T04:29:18;5.37;;;5.37;;
23573;SDS011;11965;53.640;10.050;2023-05-21T04:31:46;5.33;;;5.33;;
23573;SDS011;11965;53.640;10.050;2023-05-21T04:34:14;5.20;;;5.20;;
23573;SDS011;11965;53.640;10.050;2023-05-21T04:36:43;5.64;;;5.60;;
23573;SDS011;11965;53.640;10.050;2023-05-21T04:39:12;5.93;;;5.91;;
23573;SDS011;11965;53.640;10.050;2023-05-21T04:41:40;5.86;;;5.85;;
23573;SDS011;11965;53.640;10.050;2023-05-21T04:44:08;5.64;;;5.64;;
23573;SDS011;11965;53.640;10.050;2023-05-21T04:46:40;5.43;;;5.43;;
23573;SDS011;11965;53.640;10.050;2023-05-21T04:49:10;5.55;;;5.54;;
23573;SDS011;11965;53.640;10.050;2023-05-21T04:51:37;5.56;;;5.55;;
23573;SDS011;11965;53.640;10.050;2023-05-21T04:54:04;5.56;;;5.53;;
23573;SDS011;11965;53.640;10.050;2023-05-21T04:56:32;5.67;;;5.65;;
23573;SDS011;11965;53.640;10.050;2023-05-21T04:59:00;5.41;;;5.41;;
23573;SDS011;11965;53.640;10.050;2023-05-21T05:01:29;5.44;;;5.44;;
23573;SDS011;11965;53.640;10.050;2023-05-21T05:03:56;5.80;;;5.80;;
23573;SDS011;11965;53.640;10.050;2023-05-21T05:06:26;5.79;;;5.78;;
23573;SDS011;11965;53.640;10.050;2023-05-21T05:08:54;5.55;;;5.54;;
23573;SDS011;11965;53.640;10.050;2023-05-21T05:11:21;5.72;;;5.72;;
23573;SDS011;11965;53.640;10.050;2023-05-21T05:13:49;5.55;;;5.55;;
23573;SDS011;11965;53.640;10.050;2023-05-21T05:16:17;6.09;;;6.09;;
23573;SDS011;11965;53.640;10.050;2023-05-21T05:18:51;6.00;;;6.00;;
23573;SDS011;11965;53.640;10.050;2023-05-21T05:21:21;5.91;;;5.91;;
23573;SDS011;11965;53.640;10.050;2023-05-21T05:23:49;6.10;;;6.10;;
23573;SDS011;11965;53.640;10.050;2023-05-21T05:26:17;6.58;;;6.58;;
23573;SDS011;11965;53.640;10.050;2023-05-21T05:28:44;6.11;;;6.11;;
23573;SDS011;11965;53.640;10.050;2023-05-21T05:31:11;5.67;;;5.67;;
23573;SDS011;11965;53.640;10.050;2023-05-21T05:33:38;5.92;;;5.92;;
23573;SDS011;11965;53.640;10.050;2023-05-21T05:36:07;6.19;;;6.19;;
23573;SDS011;11965;53.640;10.050;2023-05-21T05:38:35;6.22;;;6.22;;
23573;SDS011;11965;53.640;10.050;2023-05-21T05:41:03;6.34;;;6.34;;
23573;SDS011;11965;53.640;10.050;2023-05-21T05:43:30;6.25;;;6.23;;
23573;SDS011;11965;53.640;10.050;2023-05-21T05:45:58;6.61;;;6.61;;
23573;SDS011;11965;53.640;10.050;2023-05-21T05:48:25;6.53;;;6.52;;
23573;SDS011;11965;53.640;10.050;2023-05-21T05:50:53;6.55;;;6.55;;
23573;SDS011;11965;53.640;10.050;2023-05-21T05:53:25;6.61;;;6.61;;
23573;SDS011;11965;53.640;10.050;2023-05-21T05:55:53;6.50;;;6.50;;
23573;SDS011;11965;53.640;10.050;2023-05-21T05:58:19;6.60;;;6.60;;
23573;SDS011;11965;53.640;10.050;2023-05-21T06:00:56;6.42;;;6.42;;
23573;SDS011;11965;53.640;10.050;2023-05-21T06:03:26;6.53;;;6.53;;
23573;SDS011;11965;53.640;10.050;2023-05-21T06:05:53;6.85;;;6.85;;
23573;SDS011;11965;53.640;10.050;2023-05-21T06:08:22;7.28;;;7.28;;
23573;SDS011;11965;53.640;10.050;2023-05-21T06:10:51;6.42;;;6.42;;
23573;SDS011;11965;53.640;10.050;2023-05-21T06:13:18;6.56;;;6.56;;
23573;SDS011;11965;53.640;10.050;2023-05-21T06:15:45;7.01;;;7.01;;
23573;SDS011;11965;53.640;10.050;2023-05-21T06:18:13;7.02;;;7.02;;
23573;SDS011;11965;53.640;10.050;2023-05-21T06:20:42;7.19;;;7.19;;
23573;SDS011;11965;53.640;10.050;2023-05-21T06:23:10;7.29;;;7.29;;
23573;SDS011;11965;53.640;10.050;2023-05-21T06:25:37;6.88;;;6.88;;
23573;SDS011;11965;53.640;10.050;2023-05-21T06:28:08;6.87;;;6.87;;
23573;SDS011;11965;53.640;10.050;2023-05-21T06:30:36;7.71;;;7.71;;
23573;SDS011;11965;53.640;10.050;2023-05-21T06:33:03;7.57;;;7.57;;
23573;SDS011;11965;53.640;10.050;2023-05-21T06:35:30;7.62;;;7.62;;
23573;SDS011;11965;53.640;10.050;2023-05-21T06:38:01;7.74;;;7.74;;
23573;SDS011;11965;53.640;10.050;2023-05-21T06:40:28;8.04;;;8.04;;
23573;SDS011;11965;53.640;10.050;2023-05-21T06:42:57;8.12;;;8.12;;
23573;SDS011;11965;53.640;10.050;2023-05-21T06:45:44;8.42;;;8.42;;
23573;SDS011;11965;53.640;10.050;2023-05-21T06:48:30;8.24;;;8.24;;
23573;SDS011;11965;53.640;10.050;2023-05-21T06:50:57;7.88;;;7.88;;
23573;SDS011;11965;53.640;10.050;2023-05-21T06:53:24;8.49;;;8.49;;
23573;SDS011;11965;53.640;10.050;2023-05-21T06:55:54;8.81;;;8.81;;
23573;SDS011;11965;53.640;10.050;2023-05-21T06:58:33;8.48;;;8.48;;
23573;SDS011;11965;53.640;10.050;2023-05-21T07:01:01;8.65;;;8.65;;
23573;SDS011;11965;53.640;10.050;2023-05-21T07:03:28;8.71;;;8.71;;
23573;SDS011;11965;53.640;10.050;2023-05-21T07:05:58;9.20;;;9.20;;
23573;SDS011;11965;53.640;10.050;2023-05-21T07:08:25;9.83;;;9.83;;
23573;SDS011;11965;53.640;10.050;2023-05-21T07:10:52;9.57;;;9.57;;
23573;SDS011;11965;53.640;10.050;2023-05-21T07:13:20;9.78;;;9.78;;
23573;SDS011;11965;53.640;10.050;2023-05-21T07:15:47;9.40;;;9.40;;
23573;SDS011;11965;53.640;10.050;2023-05-21T07:18:16;9.02;;;9.02;;
23573;SDS011;11965;53.640;10.050;2023-05-21T07:20:44;9.13;;;9.13;;
23573;SDS011;11965;53.640;10.050;2023-05-21T07:23:13;9.63;;;9.63;;
23573;SDS011;11965;53.640;10.050;2023-05-21T07:25:40;10.27;;;10.27;;
23573;SDS011;11965;53.640;10.050;2023-05-21T07:28:07;9.63;;;9.63;;
23573;SDS011;11965;53.640;10.050;2023-05-21T07:30:35;9.11;;;9.11;;
23573;SDS011;11965;53.640;10.050;2023-05-21T07:33:05;10.24;;;10.24;;
23573;SDS011;11965;53.640;10.050;2023-05-21T07:35:34;10.20;;;10.20;;
23573;SDS011;11965;53.640;10.050;2023-05-21T07:38:01;10.03;;;10.03;;
23573;SDS011;11965;53.640;10.050;2023-05-21T07:40:28;9.87;;;9.87;;
23573;SDS011;11965;53.640;10.050;2023-05-21T07:42:55;10.78;;;10.78;;
23573;SDS011;11965;53.640;10.050;2023-05-21T07:45:27;10.08;;;10.08;;
23573;SDS011;11965;53.640;10.050;2023-05-21T07:47:54;10.47;;;10.47;;
23573;SDS011;11965;53.640;10.050;2023-05-21T07:50:21;10.86;;;10.86;;
23573;SDS011;11965;53.640;10.050;2023-05-21T07:52:50;11.27;;;11.27;;
23573;SDS011;11965;53.640;10.050;2023-05-21T07:55:18;11.95;;;11.95;;
23573;SDS011;11965;53.640;10.050;2023-05-21T07:57:46;11.82;;;11.82;;
23573;SDS011;11965;53.640;10.050;2023-05-21T08:00:15;11.54;;;11.54;;
23573;SDS011;11965;53.640;10.050;2023-05-21T08:02:49;12.58;;;12.58;;
23573;SDS011;11965;53.640;10.050;2023-05-21T08:05:17;12.09;;;12.09;;
23573;SDS011;11965;53.640;10.050;2023-05-21T08:07:45;12.84;;;12.84;;
23573;SDS011;11965;53.640;10.050;2023-05-21T08:10:14;13.28;;;13.28;;
23573;SDS011;11965;53.640;10.050;2023-05-21T08:12:41;13.47;;;13.47;;
23573;SDS011;11965;53.640;10.050;2023-05-21T08:15:09;12.81;;;12.81;;
23573;SDS011;11965;53.640;10.050;2023-05-21T08:17:41;12.65;;;12.65;;
23573;SDS011;11965;53.640;10.050;2023-05-21T08:20:08;12.90;;;12.90;;
23573;SDS011;11965;53.640;10.050;2023-05-21T08:22:38;13.88;;;13.88;;
23573;SDS011;11965;53.640;10.050;2023-05-21T08:25:08;13.21;;;13.21;;
23573;SDS011;11965;53.640;10.050;2023-05-21T08:27:37;12.61;;;12.61;;
23573;SDS011;11965;53.640;10.050;2023-05-21T08:30:05;12.00;;;12.00;;
23573;SDS011;11965;53.640;10.050;2023-05-21T08:32:34;13.16;;;13.16;;
23573;SDS011;11965;53.640;10.050;2023-05-21T08:35:01;12.74;;;12.74;;
23573;SDS011;11965;53.640;10.050;2023-05-21T08:37:43;12.83;;;12.83;;
23573;SDS011;11965;53.640;10.050;2023-05-21T08:40:19;12.92;;;12.92;;
23573;SDS011;11965;53.640;10.050;2023-05-21T08:42:48;11.98;;;11.98;;
23573;SDS011;11965;53.640;10.050;2023-05-21T08:45:40;13.10;;;13.10;;
23573;SDS011;11965;53.640;10.050;2023-05-21T08:48:10;13.39;;;13.39;;
23573;SDS011;11965;53.640;10.050;2023-05-21T08:50:42;13.12;;;13.12;;
23573;SDS011;11965;53.640;10.050;2023-05-21T08:53:18;14.25;;;14.25;;
23573;SDS011;11965;53.640;10.050;2023-05-21T08:55:45;13.88;;;13.88;;
23573;SDS011;11965;53.640;10.050;2023-05-21T08:58:16;13.75;;;13.75;;
23573;SDS011;11965;53.640;10.050;2023-05-21T09:00:44;14.01;;;14.01;;
23573;SDS011;11965;53.640;10.050;2023-05-21T09:03:11;14.10;;;14.10;;
23573;SDS011;11965;53.640;10.050;2023-05-21T09:05:41;12.84;;;12.84;;
23573;SDS011;11965;53.640;10.050;2023-05-21T09:08:12;14.20;;;14.20;;
23573;SDS011;11965;53.640;10.050;2023-05-21T09:11:12;14.14;;;14.14;;
23573;SDS011;11965;53.640;10.050;2023-05-21T09:13:47;14.12;;;14.12;;
23573;SDS011;11965;53.640;10.050;2023-05-21T09:16:24;14.46;;;14.46;;
23573;SDS011;11965;53.640;10.050;2023-05-21T09:18:51;15.18;;;15.18;;
23573;SDS011;11965;53.640;10.050;2023-05-21T09:21:21;15.24;;;15.24;;
23573;SDS011;11965;53.640;10.050;2023-05-21T09:23:54;15.14;;;15.14;;
23573;SDS011;11965;53.640;10.050;2023-05-21T09:26:23;15.47;;;15.47;;
23573;SDS011;11965;53.640;10.050;2023-05-21T09:28:57;15.06;;;15.06;;
23573;SDS011;11965;53.640;10.050;2023-05-21T09:31:26;14.96;;;14.96;;
23573;SDS011;11965;53.640;10.050;2023-05-21T09:33:54;14.51;;;14.51;;
23573;SDS011;11965;53.640;10.050;2023-05-21T09:36:23;15.15;;;15.15;;
23573;SDS011;11965;53.640;10.050;2023-05-21T09:38:50;14.64;;;14.64;;
23573;SDS011;11965;53.640;10.050;2023-05-21T09:41:17;15.01;;;15.01;;
23573;SDS011;11965;53.640;10.050;2023-05-21T09:43:46;14.54;;;14.54;;
23573;SDS011;11965;53.640;10.050;2023-05-21T09:46:16;14.11;;;14.11;;
23573;SDS011;11965;53.640;10.050;2023-05-21T09:48:51;14.68;;;14.68;;
23573;SDS011;11965;53.640;10.050;2023-05-21T09:51:19;14.46;;;14.46;;
23573;SDS011;11965;53.640;10.050;2023-05-21T09:53:50;14.55;;;14.55;;
23573;SDS011;11965;53.640;10.050;2023-05-21T09:56:19;14.40;;;14.40;;
23573;SDS011;11965;53.640;10.050;2023-05-21T09:58:50;14.22;;;14.22;;
23573;SDS011;11965;53.640;10.050;2023-05-21T10:01:20;13.63;;;13.63;;
23573;SDS011;11965;53.640;10.050;2023-05-21T10:03:49;14.76;;;14.76;;
23573;SDS011;11965;53.640;10.050;2023-05-21T10:06:23;14.73;;;14.73;;
23573;SDS011;11965;53.640;10.050;2023-05-21T10:08:52;15.14;;;15.14;;
23573;SDS011;11965;53.640;10.050;2023-05-21T10:11:21;14.32;;;14.32;;
23573;SDS011;11965;53.640;10.050;2023-05-21T10:13:52;12.85;;;12.85;;
23573;SDS011;11965;53.640;10.050;2023-05-21T10:16:24;12.24;;;12.24;;
23573;SDS011;11965;53.640;10.050;2023-05-21T10:18:55;12.93;;;12.93;;
23573;SDS011;11965;53.640;10.050;2023-05-21T10:21:25;13.12;;;13.12;;
23573;SDS011;11965;53.640;10.050;2023-05-21T10:23:53;13.34;;;13.34;;
23573;SDS011;11965;53.640;10.050;2023-05-21T10:26:22;13.64;;;13.64;;
23573;SDS011;11965;53.640;10.050;2023-05-21T10:28:50;12.85;;;12.85;;
23573;SDS011;11965;53.640;10.050;2023-05-21T10:31:17;13.43;;;13.43;;
23573;SDS011;11965;53.640;10.050;2023-05-21T10:33:47;12.62;;;12.62;;
23573;SDS011;11965;53.640;10.050;2023-05-21T10:36:16;11.53;;;11.53;;
23573;SDS011;11965;53.640;10.050;2023-05-21T10:38:43;12.12;;;12.12;;
23573;SDS011;11965;53.640;10.050;2023-05-21T10:41:11;11.88;;;11.88;;
23573;SDS011;11965;53.640;10.050;2023-05-21T10:43:45;11.93;;;11.93;;
23573;SDS011;11965;53.640;10.050;2023-05-21T10:49:23;10.92;;;10.92;;
23573;SDS011;11965;53.640;10.050;2023-05-21T10:52:06;12.93;;;12.93;;
23573;SDS011;11965;53.640;10.050;2023-05-21T10:54:54;12.36;;;12.36;;
23573;SDS011;11965;53.640;10.050;2023-05-21T11:00:24;11.85;;;11.85;;
23573;SDS011;11965;53.640;10.050;2023-05-21T11:02:55;12.52;;;12.52;;
23573;SDS011;11965;53.640;10.050;2023-05-21T11:05:40;13.31;;;13.31;;
23573;SDS011;11965;53.640;10.050;2023-05-21T11:08:19;11.46;;;11.46;;
23573;SDS011;11965;53.640;10.050;2023-05-21T11:10:51;11.87;;;11.87;;
23573;SDS011;11965;53.640;10.050;2023-05-21T11:13:19;12.14;;;12.14;;
23573;SDS011;11965;53.640;10.050;2023-05-21T11:16:06;12.21;;;12.21;;
23573;SDS011;11965;53.640;10.050;2023-05-21T11:19:00;12.70;;;12.70;;
23573;SDS011;11965;53.640;10.050;2023-05-21T11:21:33;12.12;;;12.12;;
23573;SDS011;11965;53.640;10.050;2023-05-21T11:24:01;11.28;;;11.28;;
23573;SDS011;11965;53.640;10.050;2023-05-21T11:29:35;11.67;;;11.67;;
23573;SDS011;11965;53.640;10.050;2023-05-21T11:32:06;12.11;;;12.11;;
23573;SDS011;11965;53.640;10.050;2023-05-21T11:34:38;12.62;;;12.62;;
23573;SDS011;11965;53.640;10.050;2023-05-21T11:37:25;11.93;;;11.93;;
23573;SDS011;11965;53.640;10.050;2023-05-21T11:39:57;12.55;;;12.55;;
23573;SDS011;11965;53.640;10.050;2023-05-21T11:42:44;12.44;;;12.44;;
23573;SDS011;11965;53.640;10.050;2023-05-21T11:45:16;12.30;;;12.30;;
23573;SDS011;11965;53.640;10.050;2023-05-21T11:47:46;12.42;;;12.42;;
23573;SDS011;11965;53.640;10.050;2023-05-21T11:50:13;13.04;;;13.04;;
23573;SDS011;11965;53.640;10.050;2023-05-21T11:52:43;12.40;;;12.40;;
23573;SDS011;11965;53.640;10.050;2023-05-21T11:55:10;12.97;;;12.97;;
23573;SDS011;11965;53.640;10.050;2023-05-21T11:57:40;13.22;;;13.22;;
23573;SDS011;11965;53.640;10.050;2023-05-21T12:00:12;12.62;;;12.62;;
23573;SDS011;11965;53.640;10.050;2023-05-21T12:02:45;13.99;;;13.99;;
23573;SDS011;11965;53.640;10.050;2023-05-21T12:05:14;13.52;;;13.52;;
23573;SDS011;11965;53.640;10.050;2023-05-21T12:07:44;13.10;;;13.10;;
23573;SDS011;11965;53.640;10.050;2023-05-21T12:10:14;13.00;;;13.00;;
23573;SDS011;11965;53.640;10.050;2023-05-21T12:12:41;13.73;;;13.73;;
23573;SDS011;11965;53.640;10.050;2023-05-21T12:15:09;12.75;;;12.75;;
23573;SDS011;11965;53.640;10.050;2023-05-21T12:17:39;13.46;;;13.46;;
23573;SDS011;11965;53.640;10.050;2023-05-21T12:20:07;13.47;;;13.47;;
23573;SDS011;11965;53.640;10.050;2023-05-21T12:22:39;13.52;;;13.52;;
23573;SDS011;11965;53.640;10.050;2023-05-21T12:25:09;13.61;;;13.61;;
23573;SDS011;11965;53.640;10.050;2023-05-21T12:27:37;13.54;;;13.54;;
23573;SDS011;11965;53.640;10.050;2023-05-21T12:30:06;13.74;;;13.74;;
23573;SDS011;11965;53.640;10.050;2023-05-21T12:32:35;13.67;;;13.67;;
23573;SDS011;11965;53.640;10.050;2023-05-21T12:35:08;13.28;;;13.28;;
23573;SDS011;11965;53.640;10.050;2023-05-21T12:37:35;13.93;;;13.93;;
23573;SDS011;11965;53.640;10.050;2023-05-21T12:40:02;14.08;;;14.08;;
23573;SDS011;11965;53.640;10.050;2023-05-21T12:42:33;13.40;;;13.40;;
23573;SDS011;11965;53.640;10.050;2023-05-21T12:45:00;12.96;;;12.96;;
23573;SDS011;11965;53.640;10.050;2023-05-21T12:47:33;13.95;;;13.95;;
23573;SDS011;11965;53.640;10.050;2023-05-21T12:50:01;14.27;;;14.27;;
23573;SDS011;11965;53.640;10.050;2023-05-21T12:52:31;13.92;;;13.92;;
23573;SDS011;11965;53.640;10.050;2023-05-21T12:54:59;13.49;;;13.49;;
23573;SDS011;11965;53.640;10.050;2023-05-21T12:57:26;13.78;;;13.78;;
23573;SDS011;11965;53.640;10.050;2023-05-21T13:00:04;13.75;;;13.75;;
23573;SDS011;11965;53.640;10.050;2023-05-21T13:02:33;14.38;;;14.38;;
23573;SDS011;11965;53.640;10.050;2023-05-21T13:05:08;14.22;;;14.22;;
23573;SDS011;11965;53.640;10.050;2023-05-21T13:07:36;14.10;;;14.10;;
23573;SDS011;11965;53.640;10.050;2023-05-21T13:10:06;13.95;;;13.95;;
23573;SDS011;11965;53.640;10.050;2023-05-21T13:12:36;13.91;;;13.91;;
23573;SDS011;11965;53.640;10.050;2023-05-21T13:15:03;14.27;;;14.27;;
23573;SDS011;11965;53.640;10.050;2023-05-21T13:17:32;13.73;;;13.73;;
23573;SDS011;11965;53.640;10.050;2023-05-21T13:20:04;13.62;;;13.62;;
23573;SDS011;11965;53.640;10.050;2023-05-21T13:22:33;13.44;;;13.44;;
23573;SDS011;11965;53.640;10.050;2023-05-21T13:25:03;13.93;;;13.93;;
23573;SDS011;11965;53.640;10.050;2023-05-21T13:27:31;13.69;;;13.69;;
23573;SDS011;11965;53.640;10.050;2023-05-21T13:29:59;13.54;;;13.54;;
23573;SDS011;11965;53.640;10.050;2023-05-21T13:32:26;13.71;;;13.71;;
23573;SDS011;11965;53.640;10.050;2023-05-21T13:34:53;13.67;;;13.67;;
23573;SDS011;11965;53.640;10.050;2023-05-21T13:37:20;13.32;;;13.32;;
23573;SDS011;11965;53.640;10.050;2023-05-21T13:39:47;13.42;;;13.42;;
23573;SDS011;11965;53.640;10.050;2023-05-21T13:42:14;13.21;;;13.21;;
23573;SDS011;11965;53.640;10.050;2023-05-21T13:44:41;13.65;;;13.65;;
23573;SDS011;11965;53.640;10.050;2023-05-21T13:47:09;13.60;;;13.60;;
23573;SDS011;11965;53.640;10.050;2023-05-21T13:49:37;13.64;;;13.64;;
23573;SDS011;11965;53.640;10.050;2023-05-21T13:52:05;13.31;;;13.31;;
23573;SDS011;11965;53.640;10.050;2023-05-21T13:54:33;13.39;;;13.39;;
23573;SDS011;11965;53.640;10.050;2023-05-21T13:57:01;13.61;;;13.61;;
23573;SDS011;11965;53.640;10.050;2023-05-21T13:59:31;13.53;;;13.53;;
23573;SDS011;11965;53.640;10.050;2023-05-21T14:01:58;13.07;;;13.07;;
23573;SDS011;11965;53.640;10.050;2023-05-21T14:04:27;13.21;;;13.21;;
23573;SDS011;11965;53.640;10.050;2023-05-21T14:06:54;13.08;;;13.08;;
23573;SDS011;11965;53.640;10.050;2023-05-21T14:09:21;12.44;;;12.44;;
23573;SDS011;11965;53.640;10.050;2023-05-21T14:11:51;12.28;;;12.28;;
23573;SDS011;11965;53.640;10.050;2023-05-21T14:14:18;12.17;;;12.17;;
23573;SDS011;11965;53.640;10.050;2023-05-21T14:16:45;11.89;;;11.89;;
23573;SDS011;11965;53.640;10.050;2023-05-21T14:19:13;11.73;;;11.73;;
23573;SDS011;11965;53.640;10.050;2023-05-21T14:21:41;11.53;;;11.53;;
23573;SDS011;11965;53.640;10.050;2023-05-21T14:24:09;11.23;;;11.23;;
23573;SDS011;11965;53.640;10.050;2023-05-21T14:26:36;12.11;;;12.11;;
23573;SDS011;11965;53.640;10.050;2023-05-21T14:29:06;11.52;;;11.52;;
23573;SDS011;11965;53.640;10.050;2023-05-21T14:31:33;11.53;;;11.53;;
23573;SDS011;11965;53.640;10.050;2023-05-21T14:34:01;11.42;;;11.42;;
23573;SDS011;11965;53.640;10.050;2023-05-21T14:36:28;11.13;;;11.13;;
23573;SDS011;11965;53.640;10.050;2023-05-21T14:38:58;10.96;;;10.96;;
23573;SDS011;11965;53.640;10.050;2023-05-21T14:41:25;10.90;;;10.90;;
23573;SDS011;11965;53.640;10.050;2023-05-21T14:43:52;11.48;;;11.48;;